sensor_id;sensor_type;location;lat;lon;timestamp;P1;durP1;ratioP1;P2;durP2;ratioP2
68888;SDS011;55930;47.412;8.790;2022-12-10T00:03:22;17.67;;;14.52;;
68888;SDS011;55930;47.412;8.790;2022-12-10T00:06:42;17.80;;;14.80;;
68888;SDS011;55930;47.412;8.790;2022-12-10T00:10:04;21.20;;;16.83;;
68888;SDS011;55930;47.412;8.790;2022-12-10T00:13:24;19.17;;;14.90;;
68888;SDS011;55930;47.412;8.790;2022-12-10T00:16:45;20.47;;;16.57;;
68888;SDS011;55930;47.412;8.790;2022-12-10T00:20:09;20.67;;;16.03;;
68888;SDS011;55930;47.412;8.790;2022-12-10T00:23:32;23.08;;;17.77;;
68888;SDS011;55930;47.412;8.790;2022-12-10T00:27:01;24.13;;;18.23;;
68888;SDS011;55930;47.412;8.790;2022-12-10T00:30:21;25.10;;;18.73;;
68888;SDS011;55930;47.412;8.790;2022-12-10T00:33:44;22.40;;;17.23;;
68888;SDS011;55930;47.412;8.790;2022-12-10T00:37:09;21.25;;;16.67;;
68888;SDS011;55930;47.412;8.790;2022-12-10T00:40:45;25.08;;;18.65;;
68888;SDS011;55930;47.412;8.790;2022-12-10T00:44:06;20.97;;;16.23;;
68888;SDS011;55930;47.412;8.790;2022-12-10T00:47:26;20.40;;;16.03;;
68888;SDS011;55930;47.412;8.790;2022-12-10T00:51:07;20.10;;;15.83;;
68888;SDS011;55930;47.412;8.790;2022-12-10T00:54:32;19.67;;;15.95;;
68888;SDS011;55930;47.412;8.790;2022-12-10T00:57:52;19.47;;;14.30;;
68888;SDS011;55930;47.412;8.790;2022-12-10T01:04:43;19.43;;;14.17;;
68888;SDS011;55930;47.412;8.790;2022-12-10T01:08:06;19.05;;;15.02;;
68888;SDS011;55930;47.412;8.790;2022-12-10T01:11:31;15.97;;;13.27;;
68888;SDS011;55930;47.412;8.790;2022-12-10T01:15:15;15.77;;;13.13;;
68888;SDS011;55930;47.412;8.790;2022-12-10T01:18:41;18.77;;;14.70;;
68888;SDS011;55930;47.412;8.790;2022-12-10T01:22:04;17.23;;;14.40;;
68888;SDS011;55930;47.412;8.790;2022-12-10T01:25:24;17.37;;;13.93;;
68888;SDS011;55930;47.412;8.790;2022-12-10T01:28:45;19.93;;;14.97;;
68888;SDS011;55930;47.412;8.790;2022-12-10T01:32:08;19.60;;;15.30;;
68888;SDS011;55930;47.412;8.790;2022-12-10T01:35:28;18.10;;;13.47;;
68888;SDS011;55930;47.412;8.790;2022-12-10T01:38:49;18.13;;;13.93;;
68888;SDS011;55930;47.412;8.790;2022-12-10T01:42:11;18.27;;;14.32;;
68888;SDS011;55930;47.412;8.790;2022-12-10T01:45:33;18.67;;;15.38;;
68888;SDS011;55930;47.412;8.790;2022-12-10T01:48:54;20.67;;;16.23;;
68888;SDS011;55930;47.412;8.790;2022-12-10T01:52:15;21.35;;;16.40;;
68888;SDS011;55930;47.412;8.790;2022-12-10T01:55:46;19.93;;;15.07;;
68888;SDS011;55930;47.412;8.790;2022-12-10T01:59:09;24.55;;;17.55;;
68888;SDS011;55930;47.412;8.790;2022-12-10T02:06:12;21.90;;;16.63;;
68888;SDS011;55930;47.412;8.790;2022-12-10T02:09:42;22.85;;;16.83;;
68888;SDS011;55930;47.412;8.790;2022-12-10T02:13:30;26.48;;;17.45;;
68888;SDS011;55930;47.412;8.790;2022-12-10T02:16:59;21.05;;;16.55;;
68888;SDS011;55930;47.412;8.790;2022-12-10T02:20:41;21.35;;;16.55;;
68888;SDS011;55930;47.412;8.790;2022-12-10T02:24:07;21.20;;;15.40;;
68888;SDS011;55930;47.412;8.790;2022-12-10T02:27:40;20.60;;;15.82;;
68888;SDS011;55930;47.412;8.790;2022-12-10T02:31:18;20.67;;;16.02;;
68888;SDS011;55930;47.412;8.790;2022-12-10T02:34:43;24.58;;;18.65;;
68888;SDS011;55930;47.412;8.790;2022-12-10T02:38:15;25.80;;;17.85;;
68888;SDS011;55930;47.412;8.790;2022-12-10T02:41:41;24.50;;;18.58;;
68888;SDS011;55930;47.412;8.790;2022-12-10T02:45:07;23.75;;;17.60;;
68888;SDS011;55930;47.412;8.790;2022-12-10T02:48:28;22.52;;;17.30;;
68888;SDS011;55930;47.412;8.790;2022-12-10T02:51:49;28.88;;;17.58;;
68888;SDS011;55930;47.412;8.790;2022-12-10T02:55:11;23.43;;;16.20;;
68888;SDS011;55930;47.412;8.790;2022-12-10T02:58:39;21.30;;;15.85;;
68888;SDS011;55930;47.412;8.790;2022-12-10T03:02:18;19.90;;;15.48;;
68888;SDS011;55930;47.412;8.790;2022-12-10T03:05:49;19.35;;;14.75;;
68888;SDS011;55930;47.412;8.790;2022-12-10T03:09:17;18.35;;;14.35;;
68888;SDS011;55930;47.412;8.790;2022-12-10T03:12:44;21.35;;;15.98;;
68888;SDS011;55930;47.412;8.790;2022-12-10T03:16:10;19.42;;;15.20;;
68888;SDS011;55930;47.412;8.790;2022-12-10T03:19:33;19.83;;;15.30;;
68888;SDS011;55930;47.412;8.790;2022-12-10T03:22:57;15.85;;;13.63;;
68888;SDS011;55930;47.412;8.790;2022-12-10T03:26:18;17.30;;;13.43;;
68888;SDS011;55930;47.412;8.790;2022-12-10T03:29:46;16.20;;;13.10;;
68888;SDS011;55930;47.412;8.790;2022-12-10T03:33:08;15.13;;;12.57;;
68888;SDS011;55930;47.412;8.790;2022-12-10T03:36:32;16.17;;;12.37;;
68888;SDS011;55930;47.412;8.790;2022-12-10T03:39:53;18.58;;;14.30;;
68888;SDS011;55930;47.412;8.790;2022-12-10T03:43:14;17.60;;;14.23;;
68888;SDS011;55930;47.412;8.790;2022-12-10T03:46:37;17.80;;;14.13;;
68888;SDS011;55930;47.412;8.790;2022-12-10T03:49:58;17.67;;;13.17;;
68888;SDS011;55930;47.412;8.790;2022-12-10T03:53:18;11.07;;;9.47;;
68888;SDS011;55930;47.412;8.790;2022-12-10T03:56:55;16.30;;;12.35;;
68888;SDS011;55930;47.412;8.790;2022-12-10T04:00:15;17.07;;;13.67;;
68888;SDS011;55930;47.412;8.790;2022-12-10T04:03:37;18.30;;;14.70;;
68888;SDS011;55930;47.412;8.790;2022-12-10T04:06:58;17.08;;;13.77;;
68888;SDS011;55930;47.412;8.790;2022-12-10T04:10:19;17.73;;;13.20;;
68888;SDS011;55930;47.412;8.790;2022-12-10T04:13:40;15.93;;;12.67;;
68888;SDS011;55930;47.412;8.790;2022-12-10T04:17:19;17.60;;;13.88;;
68888;SDS011;55930;47.412;8.790;2022-12-10T04:20:39;18.07;;;12.67;;
68888;SDS011;55930;47.412;8.790;2022-12-10T04:24:19;16.58;;;12.40;;
68888;SDS011;55930;47.412;8.790;2022-12-10T04:28:03;16.60;;;12.90;;
68888;SDS011;55930;47.412;8.790;2022-12-10T04:31:23;17.13;;;13.50;;
68888;SDS011;55930;47.412;8.790;2022-12-10T04:34:51;16.02;;;12.75;;
68888;SDS011;55930;47.412;8.790;2022-12-10T04:38:11;15.20;;;11.47;;
68888;SDS011;55930;47.412;8.790;2022-12-10T04:41:32;17.67;;;12.60;;
68888;SDS011;55930;47.412;8.790;2022-12-10T04:44:52;17.30;;;12.60;;
68888;SDS011;55930;47.412;8.790;2022-12-10T04:48:15;17.17;;;13.30;;
68888;SDS011;55930;47.412;8.790;2022-12-10T04:51:35;15.50;;;12.93;;
68888;SDS011;55930;47.412;8.790;2022-12-10T04:55:09;14.73;;;11.60;;
68888;SDS011;55930;47.412;8.790;2022-12-10T04:58:29;13.87;;;11.63;;
68888;SDS011;55930;47.412;8.790;2022-12-10T05:01:50;15.10;;;12.38;;
68888;SDS011;55930;47.412;8.790;2022-12-10T05:05:11;13.20;;;11.17;;
68888;SDS011;55930;47.412;8.790;2022-12-10T05:08:32;15.48;;;11.88;;
68888;SDS011;55930;47.412;8.790;2022-12-10T05:11:52;16.97;;;12.00;;
68888;SDS011;55930;47.412;8.790;2022-12-10T05:15:13;11.90;;;9.30;;
68888;SDS011;55930;47.412;8.790;2022-12-10T05:18:33;17.43;;;12.50;;
68888;SDS011;55930;47.412;8.790;2022-12-10T05:21:54;14.20;;;11.70;;
68888;SDS011;55930;47.412;8.790;2022-12-10T05:25:36;15.35;;;11.55;;
68888;SDS011;55930;47.412;8.790;2022-12-10T05:29:12;16.85;;;12.30;;
68888;SDS011;55930;47.412;8.790;2022-12-10T05:32:33;16.70;;;11.97;;
68888;SDS011;55930;47.412;8.790;2022-12-10T05:39:25;15.23;;;11.50;;
68888;SDS011;55930;47.412;8.790;2022-12-10T05:42:45;23.23;;;14.83;;
68888;SDS011;55930;47.412;8.790;2022-12-10T05:46:07;18.10;;;13.77;;
68888;SDS011;55930;47.412;8.790;2022-12-10T05:49:30;18.63;;;13.15;;
68888;SDS011;55930;47.412;8.790;2022-12-10T05:52:50;19.23;;;12.80;;
68888;SDS011;55930;47.412;8.790;2022-12-10T05:56:12;19.83;;;15.03;;
68888;SDS011;55930;47.412;8.790;2022-12-10T05:59:38;16.95;;;12.70;;
68888;SDS011;55930;47.412;8.790;2022-12-10T06:03:09;17.55;;;12.77;;
68888;SDS011;55930;47.412;8.790;2022-12-10T06:06:31;18.88;;;13.35;;
68888;SDS011;55930;47.412;8.790;2022-12-10T06:09:53;17.20;;;11.77;;
68888;SDS011;55930;47.412;8.790;2022-12-10T06:13:14;15.63;;;10.93;;
68888;SDS011;55930;47.412;8.790;2022-12-10T06:16:38;15.55;;;11.65;;
68888;SDS011;55930;47.412;8.790;2022-12-10T06:19:58;13.98;;;10.40;;
68888;SDS011;55930;47.412;8.790;2022-12-10T06:23:19;19.00;;;14.27;;
68888;SDS011;55930;47.412;8.790;2022-12-10T06:26:39;20.83;;;14.43;;
68888;SDS011;55930;47.412;8.790;2022-12-10T06:30:03;18.92;;;13.18;;
68888;SDS011;55930;47.412;8.790;2022-12-10T06:36:44;17.37;;;12.83;;
68888;SDS011;55930;47.412;8.790;2022-12-10T06:40:20;18.30;;;13.10;;
68888;SDS011;55930;47.412;8.790;2022-12-10T06:43:42;17.85;;;13.95;;
68888;SDS011;55930;47.412;8.790;2022-12-10T06:47:03;16.37;;;11.70;;
68888;SDS011;55930;47.412;8.790;2022-12-10T06:50:23;16.50;;;12.47;;
68888;SDS011;55930;47.412;8.790;2022-12-10T06:53:46;15.10;;;11.35;;
68888;SDS011;55930;47.412;8.790;2022-12-10T06:57:07;18.23;;;13.33;;
68888;SDS011;55930;47.412;8.790;2022-12-10T07:00:27;19.03;;;13.37;;
68888;SDS011;55930;47.412;8.790;2022-12-10T07:03:48;17.93;;;13.03;;
68888;SDS011;55930;47.412;8.790;2022-12-10T07:07:10;17.80;;;12.45;;
68888;SDS011;55930;47.412;8.790;2022-12-10T07:10:31;18.23;;;12.70;;
68888;SDS011;55930;47.412;8.790;2022-12-10T07:13:51;15.70;;;12.20;;
68888;SDS011;55930;47.412;8.790;2022-12-10T07:17:15;18.52;;;13.30;;
68888;SDS011;55930;47.412;8.790;2022-12-10T07:20:38;14.53;;;10.90;;
68888;SDS011;55930;47.412;8.790;2022-12-10T07:24:03;16.30;;;12.43;;
68888;SDS011;55930;47.412;8.790;2022-12-10T07:27:26;18.98;;;13.07;;
68888;SDS011;55930;47.412;8.790;2022-12-10T07:30:47;18.42;;;12.63;;
68888;SDS011;55930;47.412;8.790;2022-12-10T07:34:22;15.73;;;12.18;;
68888;SDS011;55930;47.412;8.790;2022-12-10T07:37:46;15.07;;;12.50;;
68888;SDS011;55930;47.412;8.790;2022-12-10T07:41:10;15.43;;;11.03;;
68888;SDS011;55930;47.412;8.790;2022-12-10T07:44:39;19.92;;;17.83;;
68888;SDS011;55930;47.412;8.790;2022-12-10T07:47:59;17.50;;;13.53;;
68888;SDS011;55930;47.412;8.790;2022-12-10T07:51:20;14.97;;;12.10;;
68888;SDS011;55930;47.412;8.790;2022-12-10T07:54:42;16.08;;;11.82;;
68888;SDS011;55930;47.412;8.790;2022-12-10T07:58:03;16.63;;;12.40;;
68888;SDS011;55930;47.412;8.790;2022-12-10T08:01:24;16.35;;;12.38;;
68888;SDS011;55930;47.412;8.790;2022-12-10T08:04:45;15.65;;;12.38;;
68888;SDS011;55930;47.412;8.790;2022-12-10T08:08:11;16.50;;;13.43;;
68888;SDS011;55930;47.412;8.790;2022-12-10T08:11:34;18.35;;;13.55;;
68888;SDS011;55930;47.412;8.790;2022-12-10T08:14:58;17.13;;;13.68;;
68888;SDS011;55930;47.412;8.790;2022-12-10T08:18:22;16.33;;;12.20;;
68888;SDS011;55930;47.412;8.790;2022-12-10T08:21:42;17.07;;;12.90;;
68888;SDS011;55930;47.412;8.790;2022-12-10T08:25:03;16.23;;;13.37;;
68888;SDS011;55930;47.412;8.790;2022-12-10T08:28:26;16.20;;;12.82;;
68888;SDS011;55930;47.412;8.790;2022-12-10T08:31:46;18.27;;;13.63;;
68888;SDS011;55930;47.412;8.790;2022-12-10T08:35:07;16.00;;;12.13;;
68888;SDS011;55930;47.412;8.790;2022-12-10T08:38:27;14.00;;;11.87;;
68888;SDS011;55930;47.412;8.790;2022-12-10T08:41:48;15.43;;;11.98;;
68888;SDS011;55930;47.412;8.790;2022-12-10T08:45:09;12.37;;;10.73;;
68888;SDS011;55930;47.412;8.790;2022-12-10T08:48:33;13.50;;;10.70;;
68888;SDS011;55930;47.412;8.790;2022-12-10T08:51:54;12.65;;;10.23;;
68888;SDS011;55930;47.412;8.790;2022-12-10T08:55:17;11.80;;;9.95;;
68888;SDS011;55930;47.412;8.790;2022-12-10T08:58:38;12.00;;;10.37;;
68888;SDS011;55930;47.412;8.790;2022-12-10T09:02:01;11.45;;;9.73;;
68888;SDS011;55930;47.412;8.790;2022-12-10T09:05:24;11.23;;;9.63;;
68888;SDS011;55930;47.412;8.790;2022-12-10T09:08:44;11.60;;;9.97;;
68888;SDS011;55930;47.412;8.790;2022-12-10T09:12:05;12.73;;;9.53;;
68888;SDS011;55930;47.412;8.790;2022-12-10T09:15:25;11.20;;;9.63;;
68888;SDS011;55930;47.412;8.790;2022-12-10T09:18:46;11.53;;;9.37;;
68888;SDS011;55930;47.412;8.790;2022-12-10T09:22:06;11.47;;;9.57;;
68888;SDS011;55930;47.412;8.790;2022-12-10T09:25:27;11.03;;;9.43;;
68888;SDS011;55930;47.412;8.790;2022-12-10T09:28:47;9.20;;;7.90;;
68888;SDS011;55930;47.412;8.790;2022-12-10T09:32:08;10.63;;;8.60;;
68888;SDS011;55930;47.412;8.790;2022-12-10T09:35:28;10.23;;;8.53;;
68888;SDS011;55930;47.412;8.790;2022-12-10T09:38:49;13.63;;;9.77;;
68888;SDS011;55930;47.412;8.790;2022-12-10T09:52:38;16.60;;;12.18;;
68888;SDS011;55930;47.412;8.790;2022-12-10T09:56:09;18.00;;;13.40;;
68888;SDS011;55930;47.412;8.790;2022-12-10T09:59:41;17.55;;;13.23;;
68888;SDS011;55930;47.412;8.790;2022-12-10T10:03:06;16.20;;;12.45;;
68888;SDS011;55930;47.412;8.790;2022-12-10T10:06:32;17.27;;;12.85;;
68888;SDS011;55930;47.412;8.790;2022-12-10T10:09:57;16.08;;;12.50;;
68888;SDS011;55930;47.412;8.790;2022-12-10T10:13:39;17.63;;;12.32;;
68888;SDS011;55930;47.412;8.790;2022-12-10T10:17:04;18.42;;;12.70;;
68888;SDS011;55930;47.412;8.790;2022-12-10T10:20:32;17.20;;;13.23;;
68888;SDS011;55930;47.412;8.790;2022-12-10T10:23:53;14.87;;;10.43;;
68888;SDS011;55930;47.412;8.790;2022-12-10T10:27:18;16.10;;;12.38;;
68888;SDS011;55930;47.412;8.790;2022-12-10T10:30:43;18.92;;;13.00;;
68888;SDS011;55930;47.412;8.790;2022-12-10T10:34:06;19.60;;;14.32;;
68888;SDS011;55930;47.412;8.790;2022-12-10T10:40:55;16.00;;;13.03;;
68888;SDS011;55930;47.412;8.790;2022-12-10T10:44:25;16.08;;;12.85;;
68888;SDS011;55930;47.412;8.790;2022-12-10T10:47:48;18.08;;;14.05;;
68888;SDS011;55930;47.412;8.790;2022-12-10T10:51:32;18.95;;;13.48;;
68888;SDS011;55930;47.412;8.790;2022-12-10T10:58:24;20.23;;;15.20;;
68888;SDS011;55930;47.412;8.790;2022-12-10T11:05:24;22.98;;;16.85;;
68888;SDS011;55930;47.412;8.790;2022-12-10T11:08:55;27.95;;;18.90;;
68888;SDS011;55930;47.412;8.790;2022-12-10T11:19:30;24.30;;;18.13;;
68888;SDS011;55930;47.412;8.790;2022-12-10T11:22:52;23.63;;;16.70;;
68888;SDS011;55930;47.412;8.790;2022-12-10T11:26:26;26.17;;;18.92;;
68888;SDS011;55930;47.412;8.790;2022-12-10T11:30:26;25.75;;;18.42;;
68888;SDS011;55930;47.412;8.790;2022-12-10T11:33:55;21.70;;;16.23;;
68888;SDS011;55930;47.412;8.790;2022-12-10T12:14:08;25.05;;;18.05;;
68888;SDS011;55930;47.412;8.790;2022-12-10T12:17:38;24.33;;;17.08;;
68888;SDS011;55930;47.412;8.790;2022-12-10T12:21:04;25.00;;;17.60;;
68888;SDS011;55930;47.412;8.790;2022-12-10T12:24:34;21.70;;;17.13;;
68888;SDS011;55930;47.412;8.790;2022-12-10T12:28:04;23.10;;;17.63;;
68888;SDS011;55930;47.412;8.790;2022-12-10T12:31:31;21.98;;;16.92;;
68888;SDS011;55930;47.412;8.790;2022-12-10T12:35:11;22.40;;;16.40;;
68888;SDS011;55930;47.412;8.790;2022-12-10T12:42:24;21.70;;;16.88;;
68888;SDS011;55930;47.412;8.790;2022-12-10T12:45:48;21.27;;;16.42;;
68888;SDS011;55930;47.412;8.790;2022-12-10T12:52:43;20.00;;;15.57;;
68888;SDS011;55930;47.412;8.790;2022-12-10T12:56:25;19.90;;;16.15;;
68888;SDS011;55930;47.412;8.790;2022-12-10T13:03:33;21.10;;;16.00;;
68888;SDS011;55930;47.412;8.790;2022-12-10T13:10:43;21.38;;;16.23;;
68888;SDS011;55930;47.412;8.790;2022-12-10T13:17:33;22.45;;;17.30;;
68888;SDS011;55930;47.412;8.790;2022-12-10T13:24:59;21.25;;;15.98;;
68888;SDS011;55930;47.412;8.790;2022-12-10T13:31:56;19.85;;;15.00;;
68888;SDS011;55930;47.412;8.790;2022-12-10T13:35:25;20.77;;;14.82;;
68888;SDS011;55930;47.412;8.790;2022-12-10T13:42:26;18.13;;;13.85;;
68888;SDS011;55930;47.412;8.790;2022-12-10T13:46:21;19.10;;;14.75;;
68888;SDS011;55930;47.412;8.790;2022-12-10T13:56:45;19.23;;;14.23;;
68888;SDS011;55930;47.412;8.790;2022-12-10T14:01:32;21.05;;;15.32;;
68888;SDS011;55930;47.412;8.790;2022-12-10T14:04:32;21.30;;;14.93;;
68888;SDS011;55930;47.412;8.790;2022-12-10T14:07:56;23.13;;;16.70;;
68888;SDS011;55930;47.412;8.790;2022-12-10T14:11:21;21.70;;;15.93;;
68888;SDS011;55930;47.412;8.790;2022-12-10T14:15:07;20.88;;;15.63;;
68888;SDS011;55930;47.412;8.790;2022-12-10T14:18:35;22.75;;;15.82;;
68888;SDS011;55930;47.412;8.790;2022-12-10T14:21:57;22.15;;;16.05;;
68888;SDS011;55930;47.412;8.790;2022-12-10T14:25:19;22.48;;;15.25;;
68888;SDS011;55930;47.412;8.790;2022-12-10T14:28:46;22.95;;;15.90;;
68888;SDS011;55930;47.412;8.790;2022-12-10T14:32:13;21.70;;;15.68;;
68888;SDS011;55930;47.412;8.790;2022-12-10T14:35:38;22.05;;;15.77;;
68888;SDS011;55930;47.412;8.790;2022-12-10T14:39:00;22.25;;;15.23;;
68888;SDS011;55930;47.412;8.790;2022-12-10T14:42:21;19.87;;;14.50;;
68888;SDS011;55930;47.412;8.790;2022-12-10T14:45:46;19.52;;;14.70;;
68888;SDS011;55930;47.412;8.790;2022-12-10T14:49:21;21.02;;;14.32;;
68888;SDS011;55930;47.412;8.790;2022-12-10T14:52:45;21.58;;;14.55;;
68888;SDS011;55930;47.412;8.790;2022-12-10T14:56:11;21.05;;;15.10;;
68888;SDS011;55930;47.412;8.790;2022-12-10T15:00:27;27.88;;;17.55;;
68888;SDS011;55930;47.412;8.790;2022-12-10T15:03:44;21.77;;;15.43;;
68888;SDS011;55930;47.412;8.790;2022-12-10T15:07:09;26.98;;;19.40;;
68888;SDS011;55930;47.412;8.790;2022-12-10T15:10:34;21.88;;;15.85;;
68888;SDS011;55930;47.412;8.790;2022-12-10T15:14:01;20.80;;;15.60;;
68888;SDS011;55930;47.412;8.790;2022-12-10T15:17:34;22.45;;;15.98;;
68888;SDS011;55930;47.412;8.790;2022-12-10T15:25:14;22.20;;;15.88;;
68888;SDS011;55930;47.412;8.790;2022-12-10T15:28:44;20.10;;;14.80;;
68888;SDS011;55930;47.412;8.790;2022-12-10T15:32:48;19.88;;;15.13;;
68888;SDS011;55930;47.412;8.790;2022-12-10T15:35:53;19.20;;;12.40;;
68888;SDS011;55930;47.412;8.790;2022-12-10T15:39:19;17.27;;;12.63;;
68888;SDS011;55930;47.412;8.790;2022-12-10T15:42:43;19.35;;;12.48;;
68888;SDS011;55930;47.412;8.790;2022-12-10T15:46:04;18.80;;;12.45;;
68888;SDS011;55930;47.412;8.790;2022-12-10T15:49:25;14.73;;;10.63;;
68888;SDS011;55930;47.412;8.790;2022-12-10T15:52:45;17.53;;;10.87;;
68888;SDS011;55930;47.412;8.790;2022-12-10T15:56:06;14.93;;;10.13;;
68888;SDS011;55930;47.412;8.790;2022-12-10T15:59:26;15.23;;;11.40;;
68888;SDS011;55930;47.412;8.790;2022-12-10T16:02:48;17.20;;;11.50;;
68888;SDS011;55930;47.412;8.790;2022-12-10T16:06:17;16.10;;;11.35;;
68888;SDS011;55930;47.412;8.790;2022-12-10T16:09:39;17.42;;;11.43;;
68888;SDS011;55930;47.412;8.790;2022-12-10T16:13:01;16.03;;;11.37;;
68888;SDS011;55930;47.412;8.790;2022-12-10T16:16:24;17.08;;;11.70;;
68888;SDS011;55930;47.412;8.790;2022-12-10T16:19:45;15.48;;;11.13;;
68888;SDS011;55930;47.412;8.790;2022-12-10T16:23:05;13.13;;;9.87;;
68888;SDS011;55930;47.412;8.790;2022-12-10T16:26:26;13.80;;;10.73;;
68888;SDS011;55930;47.412;8.790;2022-12-10T16:29:46;14.27;;;10.17;;
68888;SDS011;55930;47.412;8.790;2022-12-10T16:33:07;17.17;;;11.27;;
68888;SDS011;55930;47.412;8.790;2022-12-10T16:36:27;14.50;;;9.97;;
68888;SDS011;55930;47.412;8.790;2022-12-10T16:39:47;15.70;;;11.23;;
68888;SDS011;55930;47.412;8.790;2022-12-10T16:43:15;16.73;;;11.73;;
68888;SDS011;55930;47.412;8.790;2022-12-10T16:46:47;17.85;;;11.57;;
68888;SDS011;55930;47.412;8.790;2022-12-10T16:50:08;16.73;;;11.87;;
68888;SDS011;55930;47.412;8.790;2022-12-10T16:56:54;15.93;;;12.20;;
68888;SDS011;55930;47.412;8.790;2022-12-10T17:00:15;17.03;;;12.53;;
68888;SDS011;55930;47.412;8.790;2022-12-10T17:03:40;16.40;;;11.18;;
68888;SDS011;55930;47.412;8.790;2022-12-10T17:07:00;16.87;;;12.00;;
68888;SDS011;55930;47.412;8.790;2022-12-10T17:10:21;14.90;;;10.80;;
68888;SDS011;55930;47.412;8.790;2022-12-10T17:14:05;17.05;;;11.70;;
68888;SDS011;55930;47.412;8.790;2022-12-10T17:17:31;17.73;;;12.30;;
68888;SDS011;55930;47.412;8.790;2022-12-10T17:20:52;18.88;;;12.27;;
68888;SDS011;55930;47.412;8.790;2022-12-10T17:24:12;18.37;;;12.40;;
68888;SDS011;55930;47.412;8.790;2022-12-10T17:27:34;17.73;;;12.20;;
68888;SDS011;55930;47.412;8.790;2022-12-10T17:30:55;12.75;;;9.68;;
68888;SDS011;55930;47.412;8.790;2022-12-10T17:34:18;18.83;;;13.73;;
68888;SDS011;55930;47.412;8.790;2022-12-10T17:37:40;19.40;;;13.43;;
68888;SDS011;55930;47.412;8.790;2022-12-10T17:41:02;19.45;;;13.20;;
68888;SDS011;55930;47.412;8.790;2022-12-10T17:44:25;21.33;;;13.18;;
68888;SDS011;55930;47.412;8.790;2022-12-10T17:47:45;25.27;;;16.13;;
68888;SDS011;55930;47.412;8.790;2022-12-10T17:51:06;20.30;;;14.70;;
68888;SDS011;55930;47.412;8.790;2022-12-10T17:54:30;19.75;;;13.43;;
68888;SDS011;55930;47.412;8.790;2022-12-10T17:57:53;16.10;;;12.37;;
68888;SDS011;55930;47.412;8.790;2022-12-10T18:01:17;19.63;;;13.38;;
68888;SDS011;55930;47.412;8.790;2022-12-10T18:04:39;18.23;;;13.60;;
68888;SDS011;55930;47.412;8.790;2022-12-10T18:08:00;17.58;;;12.63;;
68888;SDS011;55930;47.412;8.790;2022-12-10T18:11:25;20.87;;;14.33;;
68888;SDS011;55930;47.412;8.790;2022-12-10T18:14:47;21.88;;;15.10;;
68888;SDS011;55930;47.412;8.790;2022-12-10T18:18:09;22.77;;;15.40;;
68888;SDS011;55930;47.412;8.790;2022-12-10T18:21:32;22.80;;;15.55;;
68888;SDS011;55930;47.412;8.790;2022-12-10T18:24:52;19.17;;;14.23;;
68888;SDS011;55930;47.412;8.790;2022-12-10T18:31:43;22.10;;;14.75;;
68888;SDS011;55930;47.412;8.790;2022-12-10T18:35:06;21.73;;;15.82;;
68888;SDS011;55930;47.412;8.790;2022-12-10T18:38:27;20.33;;;13.57;;
68888;SDS011;55930;47.412;8.790;2022-12-10T18:41:48;20.43;;;14.50;;
68888;SDS011;55930;47.412;8.790;2022-12-10T18:48:32;22.42;;;14.25;;
68888;SDS011;55930;47.412;8.790;2022-12-10T18:51:53;21.02;;;14.32;;
68888;SDS011;55930;47.412;8.790;2022-12-10T18:55:13;21.53;;;14.23;;
68888;SDS011;55930;47.412;8.790;2022-12-10T18:58:34;19.13;;;12.67;;
68888;SDS011;55930;47.412;8.790;2022-12-10T19:01:55;19.75;;;13.95;;
68888;SDS011;55930;47.412;8.790;2022-12-10T19:05:16;18.83;;;14.27;;
68888;SDS011;55930;47.412;8.790;2022-12-10T19:08:39;20.02;;;15.07;;
68888;SDS011;55930;47.412;8.790;2022-12-10T19:12:00;20.13;;;14.87;;
68888;SDS011;55930;47.412;8.790;2022-12-10T19:15:21;22.37;;;15.57;;
68888;SDS011;55930;47.412;8.790;2022-12-10T19:18:43;20.92;;;14.40;;
68888;SDS011;55930;47.412;8.790;2022-12-10T19:25:25;20.70;;;13.83;;
68888;SDS011;55930;47.412;8.790;2022-12-10T19:28:48;21.38;;;13.85;;
68888;SDS011;55930;47.412;8.790;2022-12-10T19:32:08;21.80;;;14.77;;
68888;SDS011;55930;47.412;8.790;2022-12-10T19:35:29;21.40;;;14.60;;
68888;SDS011;55930;47.412;8.790;2022-12-10T19:38:50;23.13;;;15.37;;
68888;SDS011;55930;47.412;8.790;2022-12-10T19:45:45;18.13;;;12.98;;
68888;SDS011;55930;47.412;8.790;2022-12-10T19:49:13;20.40;;;15.30;;
68888;SDS011;55930;47.412;8.790;2022-12-10T19:52:35;21.00;;;15.45;;
68888;SDS011;55930;47.412;8.790;2022-12-10T19:55:55;19.40;;;13.77;;
68888;SDS011;55930;47.412;8.790;2022-12-10T19:59:17;22.93;;;14.47;;
68888;SDS011;55930;47.412;8.790;2022-12-10T20:02:39;20.42;;;15.30;;
68888;SDS011;55930;47.412;8.790;2022-12-10T20:05:59;20.97;;;15.67;;
68888;SDS011;55930;47.412;8.790;2022-12-10T20:09:21;20.93;;;13.73;;
68888;SDS011;55930;47.412;8.790;2022-12-10T20:12:43;21.98;;;15.32;;
68888;SDS011;55930;47.412;8.790;2022-12-10T20:16:15;20.00;;;15.10;;
68888;SDS011;55930;47.412;8.790;2022-12-10T20:19:37;20.45;;;14.45;;
68888;SDS011;55930;47.412;8.790;2022-12-10T20:22:58;20.97;;;15.23;;
68888;SDS011;55930;47.412;8.790;2022-12-10T20:26:27;20.20;;;13.23;;
68888;SDS011;55930;47.412;8.790;2022-12-10T20:29:49;20.15;;;13.98;;
68888;SDS011;55930;47.412;8.790;2022-12-10T20:33:10;20.27;;;14.30;;
68888;SDS011;55930;47.412;8.790;2022-12-10T20:36:30;19.10;;;13.57;;
68888;SDS011;55930;47.412;8.790;2022-12-10T20:39:51;19.37;;;14.47;;
68888;SDS011;55930;47.412;8.790;2022-12-10T20:43:11;20.57;;;14.07;;
68888;SDS011;55930;47.412;8.790;2022-12-10T20:46:33;20.70;;;15.13;;
68888;SDS011;55930;47.412;8.790;2022-12-10T20:49:55;19.75;;;14.35;;
68888;SDS011;55930;47.412;8.790;2022-12-10T20:53:15;21.97;;;14.20;;
68888;SDS011;55930;47.412;8.790;2022-12-10T20:56:39;18.45;;;13.32;;
68888;SDS011;55930;47.412;8.790;2022-12-10T21:00:00;19.98;;;14.80;;
68888;SDS011;55930;47.412;8.790;2022-12-10T21:03:20;20.70;;;15.07;;
68888;SDS011;55930;47.412;8.790;2022-12-10T21:06:41;20.20;;;14.57;;
68888;SDS011;55930;47.412;8.790;2022-12-10T21:10:03;21.58;;;15.05;;
68888;SDS011;55930;47.412;8.790;2022-12-10T21:16:54;19.08;;;13.32;;
68888;SDS011;55930;47.412;8.790;2022-12-10T21:20:14;21.43;;;14.83;;
68888;SDS011;55930;47.412;8.790;2022-12-10T21:23:36;20.00;;;15.50;;
68888;SDS011;55930;47.412;8.790;2022-12-10T21:26:56;21.77;;;14.37;;
68888;SDS011;55930;47.412;8.790;2022-12-10T21:30:17;20.20;;;14.37;;
68888;SDS011;55930;47.412;8.790;2022-12-10T21:33:38;17.48;;;13.35;;
68888;SDS011;55930;47.412;8.790;2022-12-10T21:36:58;18.37;;;13.43;;
68888;SDS011;55930;47.412;8.790;2022-12-10T21:40:19;16.77;;;13.13;;
68888;SDS011;55930;47.412;8.790;2022-12-10T21:43:39;14.73;;;11.10;;
68888;SDS011;55930;47.412;8.790;2022-12-10T21:47:00;15.73;;;11.47;;
68888;SDS011;55930;47.412;8.790;2022-12-10T21:50:20;15.17;;;10.90;;
68888;SDS011;55930;47.412;8.790;2022-12-10T21:53:41;16.73;;;12.00;;
68888;SDS011;55930;47.412;8.790;2022-12-10T21:57:01;16.83;;;12.80;;
68888;SDS011;55930;47.412;8.790;2022-12-10T22:00:22;14.60;;;11.03;;
68888;SDS011;55930;47.412;8.790;2022-12-10T22:03:42;15.50;;;11.07;;
68888;SDS011;55930;47.412;8.790;2022-12-10T22:07:03;13.73;;;10.10;;
68888;SDS011;55930;47.412;8.790;2022-12-10T22:10:23;14.50;;;10.53;;
68888;SDS011;55930;47.412;8.790;2022-12-10T22:13:44;15.90;;;11.15;;
68888;SDS011;55930;47.412;8.790;2022-12-10T22:17:04;15.30;;;11.13;;
68888;SDS011;55930;47.412;8.790;2022-12-10T22:23:46;14.07;;;10.60;;